createdAt,value
2018-04-18T00:00:31.587Z,12.20
2018-04-18T00:02:59.056Z,11.70
2018-04-18T00:05:26.537Z,13.23
2018-04-18T00:07:54.221Z,14.43
2018-04-18T00:10:21.676Z,10.15
2018-04-18T00:12:50.062Z,11.70
2018-04-18T00:15:17.547Z,13.87
2018-04-18T00:17:45.124Z,12.93
2018-04-18T00:20:12.589Z,12.05
2018-04-18T00:22:40.856Z,14.50
2018-04-18T00:25:09.094Z,17.67
2018-04-18T00:27:36.793Z,15.00
2018-04-18T00:30:04.252Z,16.83
2018-04-18T00:32:31.712Z,11.33
2018-04-18T00:34:59.180Z,14.73
2018-04-18T00:37:26.667Z,17.42
2018-04-18T00:39:54.151Z,14.65
2018-04-18T00:42:21.637Z,16.75
2018-04-18T00:44:49.300Z,14.57
2018-04-18T00:47:17.611Z,18.90
2018-04-18T00:49:45.080Z,16.00
2018-04-18T00:52:12.584Z,17.10
2018-04-18T00:54:40.048Z,18.67
2018-04-18T00:57:07.496Z,17.50
2018-04-18T00:59:36.676Z,16.80
2018-04-18T01:02:04.127Z,12.90
2018-04-18T01:04:31.622Z,17.40
2018-04-18T01:06:59.078Z,11.90
2018-04-18T01:09:26.590Z,15.70
2018-04-18T01:11:54.045Z,14.50
2018-04-18T01:14:21.917Z,16.17
2018-04-18T01:16:49.372Z,15.88
2018-04-18T01:19:16.878Z,14.20
2018-04-18T01:21:45.765Z,17.95
2018-04-18T01:24:13.222Z,12.37
2018-04-18T01:26:41.471Z,13.03
2018-04-18T01:29:09.518Z,16.73
2018-04-18T01:31:37.005Z,22.63
2018-04-18T01:34:04.505Z,17.13
2018-04-18T01:36:31.960Z,13.90
2018-04-18T01:39:00.216Z,12.25
2018-04-18T01:41:27.679Z,13.23
2018-04-18T01:43:55.438Z,16.77
2018-04-18T01:46:23.543Z,15.00
2018-04-18T01:48:51.018Z,12.27
2018-04-18T01:51:18.518Z,13.75
2018-04-18T01:53:46.757Z,13.97
2018-04-18T01:56:14.222Z,15.70
2018-04-18T01:58:42.332Z,15.25
2018-04-18T02:01:09.811Z,16.00
2018-04-18T02:03:38.045Z,13.43
2018-04-18T02:06:05.523Z,13.62
2018-04-18T02:08:33.011Z,16.00
2018-04-18T02:11:01.949Z,13.07
2018-04-18T02:13:32.820Z,11.83
2018-04-18T02:16:00.272Z,12.53
2018-04-18T02:18:27.987Z,13.13
2018-04-18T02:20:57.339Z,14.85
2018-04-18T02:23:25.558Z,15.90
2018-04-18T02:25:53.045Z,15.37
2018-04-18T02:28:22.030Z,19.20
2018-04-18T02:30:49.762Z,14.60
2018-04-18T02:33:17.234Z,18.30
2018-04-18T02:35:45.769Z,15.27
2018-04-18T02:38:13.256Z,19.02
2018-04-18T02:40:40.729Z,20.67
2018-04-18T02:43:11.613Z,18.77
2018-04-18T02:45:39.067Z,15.10
2018-04-18T02:48:06.567Z,14.80
2018-04-18T02:50:34.036Z,17.70
2018-04-18T02:53:01.502Z,15.30
2018-04-18T02:55:29.809Z,15.05
2018-04-18T02:57:57.305Z,14.87
2018-04-18T03:00:25.091Z,17.10
2018-04-18T03:02:52.527Z,20.90
2018-04-18T03:05:20.054Z,18.00
2018-04-18T03:07:48.020Z,15.85
2018-04-18T03:10:15.476Z,13.17
2018-04-18T03:12:44.513Z,22.87
2018-04-18T03:15:12.035Z,12.73
2018-04-18T03:17:39.489Z,15.23
2018-04-18T03:20:09.392Z,18.15
2018-04-18T03:22:36.851Z,16.00
2018-04-18T03:25:04.386Z,15.23
2018-04-18T03:27:31.845Z,16.07
2018-04-18T03:30:06.550Z,15.60
2018-04-18T03:32:34.019Z,17.73
2018-04-18T03:35:01.512Z,17.80
2018-04-18T03:37:28.993Z,18.13
2018-04-18T03:39:56.473Z,14.63
2018-04-18T03:42:23.960Z,16.30
2018-04-18T03:44:51.508Z,17.20
2018-04-18T03:47:19.011Z,15.80
2018-04-18T03:49:47.973Z,13.02
2018-04-18T03:52:15.435Z,16.20
2018-04-18T03:54:42.917Z,14.20
2018-04-18T03:57:10.374Z,16.53
2018-04-18T03:59:40.701Z,14.40
2018-04-18T04:02:08.157Z,15.18
2018-04-18T04:04:35.689Z,15.50
2018-04-18T04:07:03.178Z,12.77
2018-04-18T04:09:31.300Z,14.80
2018-04-18T04:11:58.799Z,14.85
2018-04-18T04:14:26.312Z,16.17
2018-04-18T04:17:05.706Z,16.10
2018-04-18T04:22:46.273Z,13.90
2018-04-18T04:25:13.792Z,12.82
2018-04-18T04:27:41.510Z,14.27
2018-04-18T04:30:09.125Z,17.50
2018-04-18T04:32:36.622Z,17.12
2018-04-18T04:35:04.112Z,13.10
2018-04-18T04:37:32.341Z,22.25
2018-04-18T04:39:59.837Z,15.60
2018-04-18T04:42:27.375Z,18.03
2018-04-18T04:44:54.977Z,15.23
2018-04-18T04:47:23.904Z,12.34
2018-04-18T04:49:51.681Z,14.50
2018-04-18T04:52:21.251Z,13.75
2018-04-18T04:54:48.734Z,13.40
2018-04-18T04:57:16.196Z,14.60
2018-04-18T04:59:43.687Z,11.77
2018-04-18T05:02:11.142Z,8.60
2018-04-18T05:04:38.650Z,11.68
2018-04-18T05:07:07.184Z,9.93
2018-04-18T05:09:34.631Z,9.27
2018-04-18T05:12:02.127Z,9.03
2018-04-18T05:14:29.643Z,14.63
2018-04-18T05:16:57.122Z,11.33
2018-04-18T05:19:24.643Z,21.40
2018-04-18T05:21:52.196Z,12.43
2018-04-18T05:24:20.605Z,12.18
2018-04-18T05:26:48.109Z,12.07
2018-04-18T05:29:15.620Z,11.47
2018-04-18T05:31:43.092Z,9.93
2018-04-18T05:34:10.575Z,12.63
2018-04-18T05:36:38.050Z,12.23
2018-04-18T05:39:06.421Z,12.80
2018-04-18T05:41:35.362Z,17.23
2018-04-18T05:44:02.870Z,17.30
2018-04-18T05:46:33.964Z,13.60
2018-04-18T05:49:01.440Z,17.48
2018-04-18T05:51:30.229Z,13.43
2018-04-18T05:53:58.457Z,22.80
2018-04-18T05:56:25.945Z,23.05
2018-04-18T05:58:55.037Z,14.30
2018-04-18T06:01:26.888Z,16.03
2018-04-18T06:03:54.597Z,17.80
2018-04-18T06:06:22.143Z,19.43
2018-04-18T06:08:49.651Z,14.57
2018-04-18T06:11:17.343Z,18.20
2018-04-18T06:13:44.856Z,21.98
2018-04-18T06:16:12.512Z,37.03
2018-04-18T06:18:40.768Z,14.90
2018-04-18T06:21:08.253Z,17.10
2018-04-18T06:23:35.753Z,21.62
2018-04-18T06:26:03.226Z,24.37
2018-04-18T06:28:30.744Z,18.70
2018-04-18T06:30:58.220Z,21.47
2018-04-18T06:33:31.003Z,29.10
2018-04-18T06:35:58.479Z,28.00
2018-04-18T06:38:25.956Z,21.97
2018-04-18T06:40:53.439Z,17.90
2018-04-18T06:43:20.900Z,22.57
2018-04-18T06:45:48.400Z,18.20
2018-04-18T06:48:15.861Z,22.37
2018-04-18T06:50:43.316Z,18.43
2018-04-18T06:53:12.396Z,26.10
2018-04-18T06:55:39.950Z,21.03
2018-04-18T06:58:07.566Z,18.33
2018-04-18T07:00:35.099Z,25.20
2018-04-18T07:03:07.167Z,21.48
2018-04-18T07:05:34.621Z,19.97
2018-04-18T07:08:02.129Z,24.65
2018-04-18T07:10:29.595Z,21.93
2018-04-18T07:12:57.088Z,25.23
2018-04-18T07:15:24.575Z,18.83
2018-04-18T07:17:52.046Z,15.85
2018-04-18T07:20:20.105Z,17.40
2018-04-18T07:22:47.588Z,21.17
2018-04-18T07:25:15.061Z,27.23
2018-04-18T07:27:42.595Z,21.33
2018-04-18T07:30:10.045Z,22.17
2018-04-18T07:32:37.681Z,20.15
2018-04-18T07:35:05.152Z,18.40
2018-04-18T07:37:32.646Z,27.27
2018-04-18T07:40:00.217Z,23.37
2018-04-18T07:42:28.609Z,22.92
2018-04-18T07:44:56.089Z,21.27
2018-04-18T07:47:24.313Z,25.43
2018-04-18T07:49:55.353Z,22.50
2018-04-18T07:52:23.496Z,18.65
2018-04-18T07:54:51.033Z,22.60
2018-04-18T07:57:18.492Z,19.90
2018-04-18T07:59:46.784Z,27.43
2018-04-18T08:02:14.273Z,25.52
2018-04-18T08:04:42.325Z,20.67
2018-04-18T08:07:09.832Z,22.27
2018-04-18T08:09:37.341Z,22.40
2018-04-18T08:12:04.848Z,22.52
2018-04-18T08:14:32.314Z,21.37
2018-04-18T08:17:00.602Z,26.00
2018-04-18T08:19:28.088Z,22.03
2018-04-18T08:21:56.398Z,22.92
2018-04-18T08:24:23.877Z,28.90
2018-04-18T08:26:51.352Z,24.60
2018-04-18T08:29:18.889Z,22.65
2018-04-18T08:31:46.345Z,26.23
2018-04-18T08:34:17.385Z,25.25
2018-04-18T08:36:45.348Z,21.37
2018-04-18T08:39:12.848Z,24.97
2018-04-18T08:41:40.571Z,21.43
2018-04-18T08:44:08.089Z,27.53
2018-04-18T08:46:35.622Z,49.70
2018-04-18T08:49:04.814Z,29.95
2018-04-18T08:51:36.853Z,24.27
2018-04-18T08:54:05.828Z,27.10
2018-04-18T08:56:33.321Z,28.30
2018-04-18T08:59:00.789Z,36.50
2018-04-18T09:01:29.958Z,25.73
2018-04-18T09:03:58.037Z,19.80
2018-04-18T09:06:29.811Z,25.77
2018-04-18T09:08:57.597Z,24.87
2018-04-18T09:11:25.045Z,27.90
2018-04-18T09:13:52.536Z,25.40
2018-04-18T09:16:20.181Z,34.40
2018-04-18T09:18:47.902Z,23.65
2018-04-18T09:21:18.321Z,22.73
2018-04-18T09:23:45.807Z,24.00
2018-04-18T09:26:14.005Z,24.03
2018-04-18T09:28:41.469Z,29.73
2018-04-18T09:31:08.985Z,28.33
2018-04-18T09:33:36.512Z,19.80
2018-04-18T09:36:03.993Z,23.23
2018-04-18T09:38:31.476Z,15.75
2018-04-18T09:40:58.959Z,14.53
2018-04-18T09:43:26.432Z,11.43
2018-04-18T09:45:53.923Z,14.00
2018-04-18T09:48:22.322Z,8.47
2018-04-18T09:50:53.673Z,9.50
2018-04-18T09:53:21.188Z,12.82
2018-04-18T09:55:48.751Z,9.40
2018-04-18T09:58:16.245Z,6.00
2018-04-18T10:00:49.376Z,9.03
2018-04-18T10:03:16.853Z,7.00
2018-04-18T10:05:44.401Z,7.70
2018-04-18T10:08:12.556Z,9.77
2018-04-18T10:10:40.038Z,6.70
2018-04-18T10:13:07.822Z,10.53
2018-04-18T10:15:35.321Z,4.77
2018-04-18T10:18:02.814Z,18.47
2018-04-18T10:20:30.279Z,3.67
2018-04-18T10:22:57.821Z,11.77
2018-04-18T10:25:26.004Z,3.50
2018-04-18T10:27:53.492Z,3.22
2018-04-18T10:30:20.943Z,11.07
2018-04-18T10:32:48.594Z,7.53
2018-04-18T10:35:16.074Z,7.90
2018-04-18T10:37:43.569Z,6.62
2018-04-18T10:40:11.039Z,6.83
2018-04-18T10:42:38.643Z,12.73
2018-04-18T10:45:06.139Z,4.87
2018-04-18T10:47:33.651Z,4.55
2018-04-18T10:50:01.221Z,27.23
2018-04-18T10:52:30.107Z,7.43
2018-04-18T10:54:57.870Z,5.00
2018-04-18T10:57:25.332Z,5.63
2018-04-18T10:59:53.832Z,5.17
2018-04-18T11:02:21.282Z,9.90
2018-04-18T11:04:48.970Z,7.40
2018-04-18T11:07:16.500Z,3.62
2018-04-18T11:09:43.965Z,8.70
2018-04-18T11:12:11.601Z,7.97
2018-04-18T11:14:39.088Z,6.12
2018-04-18T11:17:06.553Z,11.90
2018-04-18T11:19:34.125Z,7.83
2018-04-18T11:22:01.803Z,4.93
2018-04-18T11:24:29.323Z,9.03
2018-04-18T11:26:57.003Z,4.67
2018-04-18T11:29:24.440Z,6.20
2018-04-18T11:31:51.910Z,3.27
2018-04-18T11:34:19.393Z,2.30
2018-04-18T11:36:46.870Z,4.82
2018-04-18T11:39:15.378Z,6.03
2018-04-18T11:41:42.848Z,8.63
2018-04-18T11:44:10.314Z,8.30
2018-04-18T11:46:37.794Z,8.90
2018-04-18T11:49:05.241Z,5.00
2018-04-18T11:51:32.725Z,3.92
2018-04-18T11:54:00.184Z,2.85
2018-04-18T11:56:27.640Z,9.07
2018-04-18T11:58:55.163Z,5.70
2018-04-18T12:01:23.432Z,4.30
2018-04-18T12:03:51.717Z,6.80
2018-04-18T12:06:19.373Z,4.50
2018-04-18T12:08:46.849Z,3.12
2018-04-18T12:11:14.367Z,3.60
2018-04-18T12:13:43.535Z,2.85
2018-04-18T12:16:11.009Z,6.50
2018-04-18T12:18:38.476Z,10.73
2018-04-18T12:21:05.959Z,5.13
2018-04-18T12:23:33.586Z,5.03
2018-04-18T12:26:06.391Z,11.50
2018-04-18T12:28:34.036Z,6.77
2018-04-18T12:31:03.380Z,3.17
2018-04-18T12:33:30.876Z,6.57
2018-04-18T12:35:58.337Z,10.53
2018-04-18T12:38:29.810Z,8.43
2018-04-18T12:40:57.630Z,5.07
2018-04-18T12:43:25.132Z,5.80
2018-04-18T12:45:52.594Z,4.30
2018-04-18T12:48:20.906Z,3.20
2018-04-18T12:50:48.484Z,3.55
2018-04-18T12:53:19.864Z,4.47
2018-04-18T12:55:51.328Z,2.83
2018-04-18T12:58:18.986Z,3.30
2018-04-18T13:00:47.411Z,3.78
2018-04-18T13:03:14.881Z,2.50
2018-04-18T13:05:42.373Z,4.27
2018-04-18T13:08:09.859Z,9.17
2018-04-18T13:10:41.293Z,4.33
2018-04-18T13:13:08.671Z,4.30
2018-04-18T13:15:37.082Z,6.20
2018-04-18T13:18:04.546Z,4.87
2018-04-18T13:20:32.035Z,3.37
2018-04-18T13:22:59.521Z,5.60
2018-04-18T13:25:30.228Z,5.00
2018-04-18T13:27:57.686Z,3.20
2018-04-18T13:30:25.188Z,4.40
2018-04-18T13:32:52.696Z,3.60
2018-04-18T13:35:20.926Z,2.87
2018-04-18T13:37:48.390Z,2.72
2018-04-18T13:40:15.865Z,5.67
2018-04-18T13:42:43.320Z,4.30
2018-04-18T13:45:10.831Z,4.47
2018-04-18T13:47:38.313Z,5.93
2018-04-18T13:50:05.785Z,3.40
2018-04-18T13:52:33.286Z,4.15
2018-04-18T13:55:04.649Z,8.30
2018-04-18T13:57:32.344Z,2.83
2018-04-18T13:59:59.803Z,2.60
2018-04-18T14:02:27.357Z,4.60
2018-04-18T14:04:54.804Z,4.65
2018-04-18T14:07:22.489Z,4.47
2018-04-18T14:09:53.073Z,4.33
2018-04-18T14:12:20.518Z,7.53
2018-04-18T14:14:48.833Z,8.13
2018-04-18T14:17:16.337Z,6.93
2018-04-18T14:19:43.809Z,3.25
2018-04-18T14:22:11.337Z,5.53
2018-04-18T14:24:38.880Z,5.30
2018-04-18T14:27:06.491Z,5.27
2018-04-18T14:29:33.969Z,8.43
2018-04-18T14:32:03.128Z,3.15
2018-04-18T14:34:30.591Z,8.43
2018-04-18T14:36:58.099Z,8.70
2018-04-18T14:39:25.585Z,9.30
2018-04-18T14:41:53.060Z,5.20
2018-04-18T14:44:20.545Z,4.30
2018-04-18T14:46:48.084Z,4.32
2018-04-18T14:49:16.915Z,4.63
2018-04-18T14:51:44.628Z,5.73
2018-04-18T14:54:12.098Z,12.83
2018-04-18T14:56:51.286Z,10.30
2018-04-18T14:59:18.766Z,7.30
2018-04-18T15:01:46.237Z,7.73
2018-04-18T15:04:13.713Z,4.57
2018-04-18T15:06:42.250Z,4.00
2018-04-18T15:09:09.841Z,9.07
2018-04-18T15:11:40.887Z,7.87
2018-04-18T15:14:08.393Z,3.53
2018-04-18T15:16:37.404Z,5.50
2018-04-18T15:19:04.873Z,8.00
2018-04-18T15:21:32.407Z,6.37
2018-04-18T15:24:00.013Z,6.72
2018-04-18T15:26:27.489Z,5.73
2018-04-18T15:28:54.990Z,4.13
2018-04-18T15:31:22.452Z,5.37
2018-04-18T15:33:50.752Z,9.52
2018-04-18T15:36:18.268Z,4.17
2018-04-18T15:38:45.757Z,6.83
2018-04-18T15:41:13.213Z,9.65
2018-04-18T15:43:40.727Z,5.62
2018-04-18T15:46:08.202Z,10.10
2018-04-18T15:48:35.695Z,4.30
2018-04-18T15:51:05.181Z,8.65
2018-04-18T15:53:32.693Z,4.83
2018-04-18T15:56:00.956Z,7.30
2018-04-18T15:58:30.370Z,8.30
2018-04-18T16:00:57.881Z,8.43
2018-04-18T16:03:25.344Z,5.20
2018-04-18T16:05:53.488Z,6.43
2018-04-18T16:08:20.983Z,5.75
2018-04-18T16:10:48.463Z,5.83
2018-04-18T16:13:16.716Z,3.73
2018-04-18T16:15:44.273Z,9.33
2018-04-18T16:18:11.896Z,5.10
2018-04-18T16:20:39.393Z,3.80
2018-04-18T16:23:07.534Z,8.00
2018-04-18T16:25:35.079Z,4.80
2018-04-18T16:28:02.543Z,7.03
2018-04-18T16:30:41.991Z,7.00
2018-04-18T16:33:09.488Z,6.93
2018-04-18T16:35:36.987Z,9.43
2018-04-18T16:38:04.475Z,7.27
2018-04-18T16:40:32.867Z,7.72
2018-04-18T16:43:00.358Z,6.68
2018-04-18T16:45:27.804Z,6.30
2018-04-18T16:47:55.270Z,11.43
2018-04-18T16:50:22.923Z,6.77
2018-04-18T16:52:50.441Z,5.43
2018-04-18T16:55:17.895Z,14.83
2018-04-18T16:57:52.426Z,9.27
2018-04-18T17:00:19.939Z,7.62
2018-04-18T17:02:47.436Z,6.78
2018-04-18T17:05:15.658Z,6.83
2018-04-18T17:07:43.132Z,4.43
2018-04-18T17:10:10.596Z,13.97
2018-04-18T17:12:45.244Z,5.60
2018-04-18T17:15:12.853Z,5.62
2018-04-18T17:17:40.316Z,6.60
2018-04-18T17:20:07.777Z,6.60
2018-04-18T17:22:35.324Z,6.20
2018-04-18T17:25:02.895Z,8.20
2018-04-18T17:27:30.353Z,7.60
2018-04-18T17:29:57.853Z,16.23
2018-04-18T17:32:26.562Z,7.57
2018-04-18T17:34:54.054Z,7.80
2018-04-18T17:37:21.517Z,7.53
2018-04-18T17:39:49.271Z,9.60
2018-04-18T17:42:16.752Z,10.23
2018-04-18T17:44:47.657Z,7.95
2018-04-18T17:47:16.037Z,11.50
2018-04-18T17:49:43.511Z,5.55
2018-04-18T17:52:11.122Z,8.30
2018-04-18T17:54:38.605Z,5.68
2018-04-18T17:57:06.082Z,7.40
2018-04-18T17:59:33.567Z,15.77
2018-04-18T18:02:01.025Z,9.02
2018-04-18T18:04:30.096Z,11.75
2018-04-18T18:06:57.748Z,11.35
2018-04-18T18:09:26.000Z,7.20
2018-04-18T18:11:53.748Z,7.87
2018-04-18T18:14:24.321Z,7.85
2018-04-18T18:16:51.780Z,7.73
2018-04-18T18:19:19.231Z,10.70
2018-04-18T18:21:46.723Z,7.28
2018-04-18T18:24:14.297Z,7.30
2018-04-18T18:26:41.774Z,13.77
2018-04-18T18:29:10.973Z,10.93
2018-04-18T18:31:39.324Z,6.43
2018-04-18T18:34:09.174Z,10.27
2018-04-18T18:36:36.753Z,11.43
2018-04-18T18:39:04.222Z,7.50
2018-04-18T18:41:32.613Z,8.52
2018-04-18T18:44:00.117Z,13.17
2018-04-18T18:46:27.679Z,8.03
2018-04-18T18:48:55.133Z,8.13
2018-04-18T18:51:22.699Z,17.43
2018-04-18T18:53:50.210Z,9.30
2018-04-18T18:56:17.670Z,9.53
2018-04-18T18:58:45.173Z,8.50
2018-04-18T19:01:12.632Z,16.30
2018-04-18T19:03:41.049Z,10.73
2018-04-18T19:06:08.552Z,12.83
2018-04-18T19:08:36.013Z,14.37
2018-04-18T19:11:03.538Z,12.40
2018-04-18T19:13:31.802Z,10.57
2018-04-18T19:16:00.048Z,12.10
2018-04-18T19:18:27.545Z,15.95
2018-04-18T19:20:57.307Z,9.70
2018-04-18T19:23:25.927Z,10.90
2018-04-18T19:25:53.406Z,15.17
2018-04-18T19:28:20.925Z,7.93
2018-04-18T19:30:51.968Z,7.47
2018-04-18T19:33:20.071Z,8.35
2018-04-18T19:35:47.573Z,9.73
2018-04-18T19:38:15.032Z,10.18
2018-04-18T19:40:43.244Z,10.27
2018-04-18T19:43:10.764Z,12.02
2018-04-18T19:45:39.763Z,16.30
2018-04-18T19:48:07.241Z,9.20
2018-04-18T19:50:34.896Z,10.70
2018-04-18T19:53:02.586Z,13.80
2018-04-18T19:55:30.040Z,8.97
2018-04-18T19:57:58.364Z,19.58
2018-04-18T20:00:25.822Z,12.27
2018-04-18T20:02:53.544Z,13.90
2018-04-18T20:05:21.025Z,9.87
2018-04-18T20:07:48.613Z,8.85
2018-04-18T20:10:16.094Z,9.67
2018-04-18T20:12:43.673Z,11.00
2018-04-18T20:15:11.937Z,15.73
2018-04-18T20:17:43.288Z,11.67
2018-04-18T20:20:10.935Z,9.20
2018-04-18T20:22:38.460Z,7.87
2018-04-18T20:25:06.704Z,8.15
2018-04-18T20:27:34.164Z,12.90
2018-04-18T20:30:01.663Z,12.43
2018-04-18T20:32:29.124Z,10.45
2018-04-18T20:34:56.616Z,10.30
2018-04-18T20:37:24.214Z,14.43
2018-04-18T20:39:51.692Z,12.50
2018-04-18T20:42:20.069Z,7.95
2018-04-18T20:44:47.659Z,11.23
2018-04-18T20:47:15.422Z,7.55
2018-04-18T20:49:43.253Z,10.90
2018-04-18T20:52:10.756Z,11.40
2018-04-18T20:54:38.237Z,11.27
2018-04-18T20:57:06.500Z,17.60
2018-04-18T20:59:34.165Z,17.37
2018-04-18T21:02:08.654Z,12.00
2018-04-18T21:04:36.124Z,13.27
2018-04-18T21:07:03.625Z,8.43
2018-04-18T21:09:31.115Z,11.67
2018-04-18T21:12:00.022Z,9.40
2018-04-18T21:14:27.463Z,8.85
2018-04-18T21:16:58.903Z,10.53
2018-04-18T21:19:26.416Z,14.90
2018-04-18T21:21:54.962Z,13.17
2018-04-18T21:24:22.474Z,15.03
2018-04-18T21:26:49.946Z,9.57
2018-04-18T21:29:17.443Z,15.87
2018-04-18T21:31:48.445Z,13.23
2018-04-18T21:34:15.970Z,14.23
2018-04-18T21:36:43.683Z,12.93
2018-04-18T21:39:11.146Z,13.70
2018-04-18T21:41:38.603Z,11.25
2018-04-18T21:44:06.076Z,13.47
2018-04-18T21:46:33.565Z,12.88
2018-04-18T21:49:01.116Z,9.70
2018-04-18T21:51:28.645Z,11.00
2018-04-18T21:53:56.114Z,14.00
2018-04-18T21:56:23.580Z,12.75
2018-04-18T21:58:51.053Z,9.47
2018-04-18T22:01:18.802Z,12.27
2018-04-18T22:03:46.655Z,12.20
2018-04-18T22:06:14.132Z,14.73
2018-04-18T22:08:42.697Z,14.47
2018-04-18T22:11:12.677Z,13.65
2018-04-18T22:13:40.137Z,12.70
2018-04-18T22:16:07.626Z,10.70
2018-04-18T22:18:35.117Z,13.60
2018-04-18T22:21:03.589Z,11.07
2018-04-18T22:23:31.087Z,13.07
2018-04-18T22:25:58.620Z,10.73
2018-04-18T22:28:26.072Z,10.57
2018-04-18T22:30:53.558Z,14.17
2018-04-18T22:33:21.013Z,11.13
2018-04-18T22:35:48.496Z,11.87
2018-04-18T22:38:16.162Z,15.00
2018-04-18T22:40:44.329Z,16.95
2018-04-18T22:43:11.794Z,13.23
2018-04-18T22:45:39.245Z,10.40
2018-04-18T22:48:11.141Z,12.48
2018-04-18T22:50:39.273Z,18.63
2018-04-18T22:53:06.759Z,13.63
2018-04-18T22:55:34.348Z,12.35
2018-04-18T22:58:01.809Z,13.80
2018-04-18T23:00:29.306Z,16.60
2018-04-18T23:02:56.832Z,18.53
2018-04-18T23:05:24.337Z,13.80
2018-04-18T23:07:51.826Z,12.37
2018-04-18T23:10:19.332Z,12.80
2018-04-18T23:12:47.357Z,21.52
2018-04-18T23:15:15.587Z,13.27
2018-04-18T23:17:43.078Z,13.98
2018-04-18T23:20:10.534Z,17.13
2018-04-18T23:22:38.003Z,15.00
2018-04-18T23:25:07.153Z,19.05
2018-04-18T23:27:34.810Z,14.73
2018-04-18T23:30:03.117Z,13.00
2018-04-18T23:32:32.489Z,14.82
2018-04-18T23:34:59.953Z,19.07
2018-04-18T23:37:27.420Z,20.33
2018-04-18T23:39:54.926Z,16.47
2018-04-18T23:42:22.383Z,14.30
2018-04-18T23:44:49.917Z,18.80
2018-04-18T23:47:17.444Z,13.27
2018-04-18T23:49:46.440Z,12.40
2018-04-18T23:52:13.996Z,16.00
2018-04-18T23:54:41.496Z,14.07
2018-04-18T23:57:11.005Z,14.80
2018-04-18T23:59:39.816Z,16.37
